sensor_id;sensor_type;location;lat;lon;timestamp;pressure;altitude;pressure_sealevel;temperature;humidity
42671;BME280;28283;55.426;37.756;2023-05-29T00:00:33;99672.38;;;9.72;69.02
42671;BME280;28283;55.426;37.756;2023-05-29T00:05:34;99696.16;;;9.75;69.48
42671;BME280;28283;55.426;37.756;2023-05-29T00:10:34;99692.03;;;9.73;70.09
42671;BME280;28283;55.426;37.756;2023-05-29T00:15:37;99700.53;;;9.77;69.56
42671;BME280;28283;55.426;37.756;2023-05-29T00:20:38;99696.53;;;9.72;69.82
42671;BME280;28283;55.426;37.756;2023-05-29T00:25:39;99679.50;;;9.65;69.49
42671;BME280;28283;55.426;37.756;2023-05-29T00:30:40;99688.31;;;9.59;70.05
42671;BME280;28283;55.426;37.756;2023-05-29T00:35:41;99664.84;;;9.46;69.96
42671;BME280;28283;55.426;37.756;2023-05-29T00:40:41;99685.91;;;9.64;69.82
42671;BME280;28283;55.426;37.756;2023-05-29T00:45:42;99699.44;;;9.71;69.60
42671;BME280;28283;55.426;37.756;2023-05-29T00:50:43;99683.59;;;9.61;69.65
42671;BME280;28283;55.426;37.756;2023-05-29T00:55:45;99680.28;;;9.44;69.92
42671;BME280;28283;55.426;37.756;2023-05-29T01:00:45;99701.47;;;9.54;70.12
42671;BME280;28283;55.426;37.756;2023-05-29T01:05:46;99702.03;;;9.49;70.18
42671;BME280;28283;55.426;37.756;2023-05-29T01:10:47;99699.72;;;9.46;70.61
42671;BME280;28283;55.426;37.756;2023-05-29T01:32:39;99720.25;;;9.24;71.15
42671;BME280;28283;55.426;37.756;2023-05-29T01:37:40;99722.47;;;9.21;71.42
42671;BME280;28283;55.426;37.756;2023-05-29T01:42:41;99712.63;;;9.13;71.88
42671;BME280;28283;55.426;37.756;2023-05-29T01:47:42;99723.75;;;9.10;72.07
42671;BME280;28283;55.426;37.756;2023-05-29T01:52:43;99713.91;;;9.02;72.32
42671;BME280;28283;55.426;37.756;2023-05-29T01:57:45;99704.91;;;8.95;72.00
42671;BME280;28283;55.426;37.756;2023-05-29T02:02:45;99737.84;;;9.04;72.47
42671;BME280;28283;55.426;37.756;2023-05-29T02:07:46;99736.84;;;9.05;72.60
42671;BME280;28283;55.426;37.756;2023-05-29T02:12:47;99700.66;;;8.86;72.42
42671;BME280;28283;55.426;37.756;2023-05-29T02:17:47;99715.75;;;9.02;72.11
42671;BME280;28283;55.426;37.756;2023-05-29T02:22:49;99739.44;;;9.13;72.26
42671;BME280;28283;55.426;37.756;2023-05-29T02:27:50;99655.59;;;8.66;72.14
42671;BME280;28283;55.426;37.756;2023-05-29T02:32:50;99732.91;;;9.15;72.55
42671;BME280;28283;55.426;37.756;2023-05-29T02:37:52;99681.19;;;8.92;72.19
42671;BME280;28283;55.426;37.756;2023-05-29T02:42:53;99700.50;;;9.02;72.30
42671;BME280;28283;55.426;37.756;2023-05-29T02:47:54;99716.88;;;9.22;71.72
42671;BME280;28283;55.426;37.756;2023-05-29T02:52:54;99751.16;;;9.35;72.32
42671;BME280;28283;55.426;37.756;2023-05-29T02:57:55;99743.47;;;9.32;72.13
42671;BME280;28283;55.426;37.756;2023-05-29T03:02:56;99746.63;;;9.50;72.16
42671;BME280;28283;55.426;37.756;2023-05-29T03:07:56;99744.66;;;9.74;70.59
42671;BME280;28283;55.426;37.756;2023-05-29T03:12:57;99758.75;;;9.91;70.57
42671;BME280;28283;55.426;37.756;2023-05-29T03:17:58;99704.22;;;9.75;70.03
42671;BME280;28283;55.426;37.756;2023-05-29T03:22:59;99772.84;;;10.29;69.30
42671;BME280;28283;55.426;37.756;2023-05-29T03:27:59;99768.31;;;10.45;68.78
42671;BME280;28283;55.426;37.756;2023-05-29T03:33:00;99769.03;;;10.54;69.19
42671;BME280;28283;55.426;37.756;2023-05-29T03:38:03;99761.69;;;10.62;69.07
42671;BME280;28283;55.426;37.756;2023-05-29T03:43:04;99792.41;;;10.96;68.24
42671;BME280;28283;55.426;37.756;2023-05-29T03:48:05;99795.22;;;11.10;68.13
42671;BME280;28283;55.426;37.756;2023-05-29T03:53:06;99780.91;;;11.31;67.31
42671;BME280;28283;55.426;37.756;2023-05-29T03:58:07;99795.84;;;11.61;66.96
42671;BME280;28283;55.426;37.756;2023-05-29T04:03:08;99782.63;;;11.67;66.40
42671;BME280;28283;55.426;37.756;2023-05-29T04:08:09;99792.19;;;11.76;67.66
42671;BME280;28283;55.426;37.756;2023-05-29T04:13:11;99774.41;;;12.16;65.42
42671;BME280;28283;55.426;37.756;2023-05-29T04:18:11;99794.16;;;12.30;66.24
42671;BME280;28283;55.426;37.756;2023-05-29T04:23:13;99781.81;;;12.63;63.05
42671;BME280;28283;55.426;37.756;2023-05-29T04:28:14;99795.97;;;12.78;62.92
42671;BME280;28283;55.426;37.756;2023-05-29T04:33:17;99794.56;;;13.09;60.41
42671;BME280;28283;55.426;37.756;2023-05-29T04:38:18;99803.31;;;13.38;58.85
42671;BME280;28283;55.426;37.756;2023-05-29T04:43:25;99800.16;;;13.67;58.37
42671;BME280;28283;55.426;37.756;2023-05-29T04:48:28;99797.00;;;13.90;56.04
42671;BME280;28283;55.426;37.756;2023-05-29T04:53:29;99800.63;;;14.23;55.15
42671;BME280;28283;55.426;37.756;2023-05-29T04:58:30;99804.13;;;14.37;53.19
42671;BME280;28283;55.426;37.756;2023-05-29T05:03:30;99805.72;;;14.51;54.13
42671;BME280;28283;55.426;37.756;2023-05-29T05:08:34;99764.50;;;14.56;52.25
42671;BME280;28283;55.426;37.756;2023-05-29T05:13:35;99809.78;;;15.05;50.76
42671;BME280;28283;55.426;37.756;2023-05-29T05:18:36;99814.97;;;15.39;50.67
42671;BME280;28283;55.426;37.756;2023-05-29T05:23:37;99810.84;;;15.36;49.04
42671;BME280;28283;55.426;37.756;2023-05-29T05:28:37;99821.66;;;15.61;50.09
42671;BME280;28283;55.426;37.756;2023-05-29T05:33:38;99784.97;;;15.84;46.25
42671;BME280;28283;55.426;37.756;2023-05-29T05:38:39;99817.09;;;16.24;45.33
42671;BME280;28283;55.426;37.756;2023-05-29T05:43:40;99771.44;;;16.02;45.27
42671;BME280;28283;55.426;37.756;2023-05-29T05:48:40;99806.25;;;16.54;43.97
42671;BME280;28283;55.426;37.756;2023-05-29T05:53:41;99769.41;;;16.47;42.38
42671;BME280;28283;55.426;37.756;2023-05-29T05:58:41;99823.03;;;16.82;40.86
42671;BME280;28283;55.426;37.756;2023-05-29T06:03:42;99776.88;;;16.82;42.21
42671;BME280;28283;55.426;37.756;2023-05-29T06:08:44;99767.28;;;17.09;35.36
42671;BME280;28283;55.426;37.756;2023-05-29T06:13:46;99818.59;;;17.41;36.91
42671;BME280;28283;55.426;37.756;2023-05-29T06:18:46;99832.22;;;17.77;37.30
42671;BME280;28283;55.426;37.756;2023-05-29T06:23:47;99825.25;;;18.04;36.01
42671;BME280;28283;55.426;37.756;2023-05-29T06:28:48;99786.00;;;17.77;32.65
42671;BME280;28283;55.426;37.756;2023-05-29T06:33:48;99853.25;;;18.05;30.65
42671;BME280;28283;55.426;37.756;2023-05-29T06:38:49;99834.97;;;18.00;30.55
42671;BME280;28283;55.426;37.756;2023-05-29T06:43:51;99833.06;;;18.01;30.57
42671;BME280;28283;55.426;37.756;2023-05-29T06:48:52;99844.94;;;18.47;30.31
42671;BME280;28283;55.426;37.756;2023-05-29T06:53:52;99850.53;;;18.05;31.09
42671;BME280;28283;55.426;37.756;2023-05-29T06:58:53;99844.63;;;18.60;31.18
42671;BME280;28283;55.426;37.756;2023-05-29T07:03:54;99845.91;;;18.29;30.77
42671;BME280;28283;55.426;37.756;2023-05-29T07:08:54;99846.88;;;18.63;30.58
42671;BME280;28283;55.426;37.756;2023-05-29T07:13:55;99859.69;;;18.51;30.09
42671;BME280;28283;55.426;37.756;2023-05-29T07:18:56;99857.28;;;18.26;30.95
42671;BME280;28283;55.426;37.756;2023-05-29T07:23:56;99815.47;;;18.44;30.40
42671;BME280;28283;55.426;37.756;2023-05-29T07:28:57;99797.13;;;18.39;30.41
42671;BME280;28283;55.426;37.756;2023-05-29T07:33:58;99859.25;;;18.42;30.17
42671;BME280;28283;55.426;37.756;2023-05-29T07:38:59;99846.09;;;18.39;29.88
42671;BME280;28283;55.426;37.756;2023-05-29T07:43:59;99851.78;;;18.49;30.85
42671;BME280;28283;55.426;37.756;2023-05-29T07:49:06;99854.06;;;18.81;30.80
42671;BME280;28283;55.426;37.756;2023-05-29T07:54:06;99849.94;;;18.67;30.10
42671;BME280;28283;55.426;37.756;2023-05-29T07:59:07;99859.56;;;18.98;31.29
42671;BME280;28283;55.426;37.756;2023-05-29T08:04:10;99785.28;;;19.20;30.02
42671;BME280;28283;55.426;37.756;2023-05-29T08:09:11;99853.94;;;19.34;29.72
42671;BME280;28283;55.426;37.756;2023-05-29T08:14:13;99832.06;;;18.83;31.11
42671;BME280;28283;55.426;37.756;2023-05-29T08:19:13;99857.56;;;19.39;30.99
42671;BME280;28283;55.426;37.756;2023-05-29T08:24:14;99841.28;;;19.27;30.54
42671;BME280;28283;55.426;37.756;2023-05-29T08:29:14;99842.38;;;19.77;30.45
42671;BME280;28283;55.426;37.756;2023-05-29T08:34:15;99836.84;;;19.38;29.74
42671;BME280;28283;55.426;37.756;2023-05-29T08:39:17;99829.81;;;19.42;30.58
42671;BME280;28283;55.426;37.756;2023-05-29T08:44:21;99810.66;;;19.54;31.50
42671;BME280;28283;55.426;37.756;2023-05-29T08:49:23;99836.28;;;20.09;28.66
42671;BME280;28283;55.426;37.756;2023-05-29T08:54:24;99821.47;;;19.49;29.45
42671;BME280;28283;55.426;37.756;2023-05-29T08:59:25;99831.94;;;19.57;28.64
42671;BME280;28283;55.426;37.756;2023-05-29T09:04:28;99841.19;;;19.39;29.11
42671;BME280;28283;55.426;37.756;2023-05-29T09:09:30;99819.06;;;19.70;29.89
42671;BME280;28283;55.426;37.756;2023-05-29T09:14:36;99819.41;;;19.90;29.30
42671;BME280;28283;55.426;37.756;2023-05-29T09:19:38;99821.94;;;19.97;30.01
42671;BME280;28283;55.426;37.756;2023-05-29T09:24:41;99806.16;;;20.43;29.87
42671;BME280;28283;55.426;37.756;2023-05-29T09:35:42;99799.72;;;20.54;28.54
42671;BME280;28283;55.426;37.756;2023-05-29T09:40:43;99799.81;;;20.37;27.93
42671;BME280;28283;55.426;37.756;2023-05-29T09:45:48;99804.81;;;20.24;28.62
42671;BME280;28283;55.426;37.756;2023-05-29T09:50:49;99756.44;;;19.97;28.97
42671;BME280;28283;55.426;37.756;2023-05-29T09:55:50;99794.78;;;20.51;28.97
42671;BME280;28283;55.426;37.756;2023-05-29T10:00:52;99792.00;;;20.68;27.30
42671;BME280;28283;55.426;37.756;2023-05-29T10:05:55;99792.75;;;21.18;27.29
42671;BME280;28283;55.426;37.756;2023-05-29T10:11:01;99798.63;;;21.05;26.93
42671;BME280;28283;55.426;37.756;2023-05-29T10:16:03;99790.38;;;21.59;27.26
42671;BME280;28283;55.426;37.756;2023-05-29T10:21:07;99780.78;;;22.04;25.66
42671;BME280;28283;55.426;37.756;2023-05-29T10:26:12;99786.66;;;21.81;26.63
42671;BME280;28283;55.426;37.756;2023-05-29T10:31:20;99767.63;;;22.06;26.93
42671;BME280;28283;55.426;37.756;2023-05-29T10:36:25;99780.28;;;22.18;26.92
42671;BME280;28283;55.426;37.756;2023-05-29T10:41:31;99762.16;;;22.06;26.87
42671;BME280;28283;55.426;37.756;2023-05-29T10:51:44;99752.69;;;21.77;27.04
42671;BME280;28283;55.426;37.756;2023-05-29T10:56:55;99750.69;;;22.20;27.67
42671;BME280;28283;55.426;37.756;2023-05-29T11:01:56;99759.13;;;22.81;28.21
42671;BME280;28283;55.426;37.756;2023-05-29T11:06:58;99748.22;;;23.22;25.39
42671;BME280;28283;55.426;37.756;2023-05-29T11:12:23;99767.38;;;23.33;25.49
42671;BME280;28283;55.426;37.756;2023-05-29T11:27:49;99732.97;;;24.02;24.23
42671;BME280;28283;55.426;37.756;2023-05-29T11:32:52;99727.81;;;24.40;24.27
42671;BME280;28283;55.426;37.756;2023-05-29T11:37:53;99717.31;;;24.52;23.84
42671;BME280;28283;55.426;37.756;2023-05-29T11:42:54;99716.75;;;24.00;23.67
42671;BME280;28283;55.426;37.756;2023-05-29T11:48:01;99724.56;;;23.52;24.72
42671;BME280;28283;55.426;37.756;2023-05-29T11:53:01;99721.78;;;23.78;24.52
42671;BME280;28283;55.426;37.756;2023-05-29T11:58:04;99720.97;;;24.43;24.12
42671;BME280;28283;55.426;37.756;2023-05-29T12:03:05;99719.31;;;24.36;24.11
42671;BME280;28283;55.426;37.756;2023-05-29T12:08:09;99697.59;;;24.85;24.09
42671;BME280;28283;55.426;37.756;2023-05-29T12:13:10;99687.50;;;25.09;22.74
42671;BME280;28283;55.426;37.756;2023-05-29T12:18:10;99698.09;;;24.92;22.89
42671;BME280;28283;55.426;37.756;2023-05-29T12:23:11;99692.88;;;24.56;22.88
42671;BME280;28283;55.426;37.756;2023-05-29T12:28:17;99699.88;;;24.28;23.76
42671;BME280;28283;55.426;37.756;2023-05-29T12:33:31;99696.66;;;24.60;23.72
42671;BME280;28283;55.426;37.756;2023-05-29T12:38:33;99696.75;;;24.89;22.64
42671;BME280;28283;55.426;37.756;2023-05-29T12:43:34;99686.72;;;25.04;22.49
42671;BME280;28283;55.426;37.756;2023-05-29T12:48:34;99695.88;;;24.94;22.20
42671;BME280;28283;55.426;37.756;2023-05-29T12:53:35;99680.78;;;25.21;22.11
42671;BME280;28283;55.426;37.756;2023-05-29T12:58:35;99689.88;;;25.50;22.64
42671;BME280;28283;55.426;37.756;2023-05-29T13:03:36;99668.34;;;26.01;22.07
42671;BME280;28283;55.426;37.756;2023-05-29T13:08:37;99662.91;;;25.96;21.61
42671;BME280;28283;55.426;37.756;2023-05-29T13:13:38;99679.94;;;25.49;22.59
42671;BME280;28283;55.426;37.756;2023-05-29T13:18:39;99682.53;;;25.65;22.55
42671;BME280;28283;55.426;37.756;2023-05-29T13:23:40;99655.75;;;25.46;22.95
42671;BME280;28283;55.426;37.756;2023-05-29T13:28:40;99677.50;;;25.72;22.14
42671;BME280;28283;55.426;37.756;2023-05-29T13:33:41;99671.50;;;25.89;22.23
42671;BME280;28283;55.426;37.756;2023-05-29T13:38:42;99683.34;;;26.33;21.05
42671;BME280;28283;55.426;37.756;2023-05-29T13:43:44;99677.63;;;26.67;21.71
42671;BME280;28283;55.426;37.756;2023-05-29T13:48:44;99679.88;;;25.79;22.08
42671;BME280;28283;55.426;37.756;2023-05-29T13:53:45;99697.69;;;25.38;22.15
42671;BME280;28283;55.426;37.756;2023-05-29T13:58:46;99671.56;;;25.06;21.81
42671;BME280;28283;55.426;37.756;2023-05-29T14:03:47;99695.34;;;24.57;23.05
42671;BME280;28283;55.426;37.756;2023-05-29T14:08:47;99668.69;;;24.53;22.53
42671;BME280;28283;55.426;37.756;2023-05-29T14:13:48;99666.50;;;24.50;22.45
42671;BME280;28283;55.426;37.756;2023-05-29T14:18:48;99682.66;;;24.62;22.82
42671;BME280;28283;55.426;37.756;2023-05-29T14:23:50;99681.72;;;24.32;22.99
42671;BME280;28283;55.426;37.756;2023-05-29T14:28:51;99657.31;;;24.25;23.60
42671;BME280;28283;55.426;37.756;2023-05-29T14:33:52;99677.97;;;24.17;23.13
42671;BME280;28283;55.426;37.756;2023-05-29T14:38:52;99675.63;;;23.90;23.71
42671;BME280;28283;55.426;37.756;2023-05-29T14:43:53;99671.38;;;24.13;23.75
42671;BME280;28283;55.426;37.756;2023-05-29T14:48:59;99673.22;;;23.68;24.62
42671;BME280;28283;55.426;37.756;2023-05-29T14:53:59;99670.72;;;23.77;25.03
42671;BME280;28283;55.426;37.756;2023-05-29T14:59:00;99665.25;;;23.61;24.22
42671;BME280;28283;55.426;37.756;2023-05-29T15:04:01;99663.03;;;23.74;24.15
42671;BME280;28283;55.426;37.756;2023-05-29T15:09:02;99650.22;;;23.49;24.99
42671;BME280;28283;55.426;37.756;2023-05-29T15:14:02;99651.22;;;23.78;24.80
42671;BME280;28283;55.426;37.756;2023-05-29T15:19:03;99656.56;;;23.44;25.18
42671;BME280;28283;55.426;37.756;2023-05-29T15:24:05;99649.75;;;23.00;25.94
42671;BME280;28283;55.426;37.756;2023-05-29T15:29:06;99661.56;;;23.11;26.02
42671;BME280;28283;55.426;37.756;2023-05-29T15:34:07;99648.38;;;23.23;26.27
42671;BME280;28283;55.426;37.756;2023-05-29T15:39:07;99657.97;;;23.21;26.15
42671;BME280;28283;55.426;37.756;2023-05-29T15:44:09;99646.75;;;22.92;26.56
42671;BME280;28283;55.426;37.756;2023-05-29T15:49:09;99656.03;;;23.32;25.95
42671;BME280;28283;55.426;37.756;2023-05-29T15:54:10;99645.59;;;23.49;25.95
42671;BME280;28283;55.426;37.756;2023-05-29T15:59:11;99652.78;;;24.45;25.26
42671;BME280;28283;55.426;37.756;2023-05-29T16:04:11;99652.16;;;25.27;24.47
42671;BME280;28283;55.426;37.756;2023-05-29T16:09:13;99648.69;;;25.11;23.97
42671;BME280;28283;55.426;37.756;2023-05-29T16:14:14;99666.06;;;25.36;23.69
42671;BME280;28283;55.426;37.756;2023-05-29T16:19:15;99663.94;;;24.98;24.27
42671;BME280;28283;55.426;37.756;2023-05-29T16:24:17;99668.03;;;25.01;24.26
42671;BME280;28283;55.426;37.756;2023-05-29T16:29:17;99652.47;;;24.91;24.70
42671;BME280;28283;55.426;37.756;2023-05-29T16:34:19;99649.06;;;24.99;24.50
42671;BME280;28283;55.426;37.756;2023-05-29T16:39:20;99646.47;;;24.84;24.71
42671;BME280;28283;55.426;37.756;2023-05-29T16:44:22;99667.00;;;24.62;25.72
42671;BME280;28283;55.426;37.756;2023-05-29T16:49:23;99624.31;;;24.30;25.50
42671;BME280;28283;55.426;37.756;2023-05-29T16:54:26;99655.91;;;24.28;25.67
42671;BME280;28283;55.426;37.756;2023-05-29T16:59:26;99645.41;;;23.95;26.22
42671;BME280;28283;55.426;37.756;2023-05-29T17:04:27;99648.38;;;23.23;27.25
42671;BME280;28283;55.426;37.756;2023-05-29T17:09:28;99645.66;;;22.52;28.02
42671;BME280;28283;55.426;37.756;2023-05-29T17:14:28;99658.19;;;22.17;28.54
42671;BME280;28283;55.426;37.756;2023-05-29T17:19:29;99660.28;;;21.89;28.99
42671;BME280;28283;55.426;37.756;2023-05-29T17:24:30;99654.47;;;21.70;29.22
42671;BME280;28283;55.426;37.756;2023-05-29T17:29:31;99651.56;;;21.44;30.08
42671;BME280;28283;55.426;37.756;2023-05-29T17:34:31;99662.38;;;21.24;30.73
42671;BME280;28283;55.426;37.756;2023-05-29T17:39:32;99655.03;;;21.29;29.88
42671;BME280;28283;55.426;37.756;2023-05-29T17:44:33;99629.47;;;20.71;31.08
42671;BME280;28283;55.426;37.756;2023-05-29T17:49:33;99663.75;;;20.89;30.62
42671;BME280;28283;55.426;37.756;2023-05-29T17:54:34;99619.72;;;20.20;32.57
42671;BME280;28283;55.426;37.756;2023-05-29T17:59:34;99666.44;;;20.51;31.36
42671;BME280;28283;55.426;37.756;2023-05-29T18:04:36;99643.25;;;19.99;32.37
42671;BME280;28283;55.426;37.756;2023-05-29T18:09:36;99669.94;;;20.19;31.71
42671;BME280;28283;55.426;37.756;2023-05-29T18:14:37;99654.25;;;19.82;32.52
42671;BME280;28283;55.426;37.756;2023-05-29T18:19:37;99664.72;;;19.91;32.21
42671;BME280;28283;55.426;37.756;2023-05-29T18:24:39;99656.47;;;19.46;33.58
42671;BME280;28283;55.426;37.756;2023-05-29T18:29:39;99673.63;;;19.64;32.80
42671;BME280;28283;55.426;37.756;2023-05-29T18:34:40;99683.78;;;19.30;34.05
42671;BME280;28283;55.426;37.756;2023-05-29T18:39:40;99679.81;;;19.37;33.21
42671;BME280;28283;55.426;37.756;2023-05-29T18:44:41;99680.94;;;19.02;35.55
42671;BME280;28283;55.426;37.756;2023-05-29T18:49:41;99680.25;;;19.12;34.36
42671;BME280;28283;55.426;37.756;2023-05-29T18:54:42;99685.78;;;18.83;36.02
42671;BME280;28283;55.426;37.756;2023-05-29T18:59:43;99688.44;;;18.95;34.92
42671;BME280;28283;55.426;37.756;2023-05-29T19:04:44;99680.91;;;18.68;36.35
42671;BME280;28283;55.426;37.756;2023-05-29T19:09:44;99688.06;;;18.75;35.58
42671;BME280;28283;55.426;37.756;2023-05-29T19:14:45;99690.25;;;18.44;37.02
42671;BME280;28283;55.426;37.756;2023-05-29T19:19:46;99679.59;;;18.25;37.84
42671;BME280;28283;55.426;37.756;2023-05-29T19:24:46;99677.72;;;18.14;37.85
42671;BME280;28283;55.426;37.756;2023-05-29T19:29:48;99679.34;;;17.98;38.11
42671;BME280;28283;55.426;37.756;2023-05-29T19:34:50;99680.63;;;17.96;38.03
42671;BME280;28283;55.426;37.756;2023-05-29T19:39:54;99671.88;;;17.82;38.95
42671;BME280;28283;55.426;37.756;2023-05-29T19:44:56;99659.28;;;17.64;38.95
42671;BME280;28283;55.426;37.756;2023-05-29T19:49:56;99673.72;;;17.64;39.33
42671;BME280;28283;55.426;37.756;2023-05-29T19:55:03;99661.34;;;17.45;39.95
42671;BME280;28283;55.426;37.756;2023-05-29T20:00:06;99661.56;;;17.31;39.82
42671;BME280;28283;55.426;37.756;2023-05-29T20:05:09;99637.03;;;17.14;40.42
42671;BME280;28283;55.426;37.756;2023-05-29T20:10:09;99651.19;;;17.16;40.14
42671;BME280;28283;55.426;37.756;2023-05-29T20:15:10;99621.66;;;16.85;40.13
42671;BME280;28283;55.426;37.756;2023-05-29T20:20:12;99651.31;;;16.98;41.05
42671;BME280;28283;55.426;37.756;2023-05-29T20:25:13;99664.66;;;16.88;40.67
42671;BME280;28283;55.426;37.756;2023-05-29T20:30:14;99665.56;;;16.82;40.82
42671;BME280;28283;55.426;37.756;2023-05-29T20:35:14;99673.22;;;16.73;42.02
42671;BME280;28283;55.426;37.756;2023-05-29T20:40:21;99663.88;;;16.57;42.38
42671;BME280;28283;55.426;37.756;2023-05-29T20:45:22;99664.13;;;16.67;40.47
42671;BME280;28283;55.426;37.756;2023-05-29T20:50:24;99664.16;;;16.37;42.68
42671;BME280;28283;55.426;37.756;2023-05-29T20:55:25;99639.19;;;16.16;42.81
42671;BME280;28283;55.426;37.756;2023-05-29T21:00:26;99657.66;;;16.26;42.89
42671;BME280;28283;55.426;37.756;2023-05-29T21:05:27;99662.94;;;16.21;43.05
42671;BME280;28283;55.426;37.756;2023-05-29T21:10:29;99647.16;;;15.99;43.56
42671;BME280;28283;55.426;37.756;2023-05-29T21:15:30;99657.22;;;16.11;43.87
42671;BME280;28283;55.426;37.756;2023-05-29T21:20:31;99655.97;;;15.95;44.38
42671;BME280;28283;55.426;37.756;2023-05-29T21:25:32;99654.78;;;15.91;44.70
42671;BME280;28283;55.426;37.756;2023-05-29T21:30:32;99663.59;;;15.86;44.99
42671;BME280;28283;55.426;37.756;2023-05-29T21:35:33;99655.78;;;15.78;45.79
42671;BME280;28283;55.426;37.756;2023-05-29T21:40:34;99650.00;;;15.74;45.25
42671;BME280;28283;55.426;37.756;2023-05-29T21:45:34;99646.28;;;15.69;45.25
42671;BME280;28283;55.426;37.756;2023-05-29T21:50:35;99644.38;;;15.69;44.25
42671;BME280;28283;55.426;37.756;2023-05-29T21:55:36;99615.94;;;15.60;44.19
42671;BME280;28283;55.426;37.756;2023-05-29T22:00:36;99642.16;;;15.84;43.47
42671;BME280;28283;55.426;37.756;2023-05-29T22:05:37;99648.63;;;15.83;44.40
42671;BME280;28283;55.426;37.756;2023-05-29T22:10:38;99646.13;;;15.82;44.23
42671;BME280;28283;55.426;37.756;2023-05-29T22:15:38;99640.13;;;15.80;45.47
42671;BME280;28283;55.426;37.756;2023-05-29T22:20:39;99619.63;;;15.65;45.35
42671;BME280;28283;55.426;37.756;2023-05-29T22:25:40;99647.59;;;15.84;43.21
42671;BME280;28283;55.426;37.756;2023-05-29T22:30:44;99640.59;;;15.70;44.04
42671;BME280;28283;55.426;37.756;2023-05-29T22:35:44;99641.69;;;15.69;44.34
42671;BME280;28283;55.426;37.756;2023-05-29T22:40:45;99639.78;;;15.70;44.48
42671;BME280;28283;55.426;37.756;2023-05-29T22:45:46;99637.63;;;15.60;45.20
42671;BME280;28283;55.426;37.756;2023-05-29T22:50:47;99645.00;;;15.53;45.56
42671;BME280;28283;55.426;37.756;2023-05-29T22:55:48;99650.44;;;15.53;45.11
42671;BME280;28283;55.426;37.756;2023-05-29T23:00:49;99627.00;;;15.58;43.66
42671;BME280;28283;55.426;37.756;2023-05-29T23:05:50;99642.06;;;15.73;43.89
42671;BME280;28283;55.426;37.756;2023-05-29T23:10:51;99629.06;;;15.81;42.59
42671;BME280;28283;55.426;37.756;2023-05-29T23:15:52;99638.53;;;15.91;42.66
42671;BME280;28283;55.426;37.756;2023-05-29T23:20:54;99639.19;;;15.86;43.43
42671;BME280;28283;55.426;37.756;2023-05-29T23:25:54;99639.53;;;15.78;43.84
42671;BME280;28283;55.426;37.756;2023-05-29T23:30:55;99644.75;;;15.73;43.76
42671;BME280;28283;55.426;37.756;2023-05-29T23:35:56;99639.88;;;15.63;43.98
42671;BME280;28283;55.426;37.756;2023-05-29T23:40:57;99650.09;;;15.61;44.48
42671;BME280;28283;55.426;37.756;2023-05-29T23:45:58;99639.97;;;15.56;43.78
42671;BME280;28283;55.426;37.756;2023-05-29T23:50:59;99646.13;;;15.63;44.14
42671;BME280;28283;55.426;37.756;2023-05-29T23:56:00;99644.13;;;15.77;43.15
